Butterfly — C6UP2 — position and weather

sailwx.info

Track history (hours):
 
Tides and Currents Weather Stations Pressure Air Temp Water Temp Dewpoint Dewpoint Depression Visibility Wind Speed Wind Dir Waves Ship Positions

Butterfly

Last reported at 2017-Mar-19 17:34 UTC. Time now 2017-Mar-25 02:04 UTC.
Position N 36°14' W 007°28'.

Length 182 m; draft 7.3 m.

Type: Ship. MMSI: 311985000.

Date/timePositionNaut miles runAvg speedWind from/ knotsBaromVisibWave heightAir tempDewpointWater temp
2017-Mar-19 17:34N 36°14' W 007°28'1313.4
2017-Mar-19 16:33N 36°03' W 007°37'1413.5
2017-Mar-19 15:33N 35°52' W 007°46'48612.8
2017-Mar-18 01:33N 29°02' W 012°55'1413.5
2017-Mar-18 00:33N 28°50' W 013°03'1413.5
2017-Mar-17 23:31N 28°38' W 013°12'1313.6
2017-Mar-17 22:32N 28°27' W 013°20'  
2017-Mar-15 00:33N 15°10' W 017°60'1412.6
2017-Mar-14 23:26N 14°56' W 018°00'3012.7
2017-Mar-14 21:04N 14°26' W 017°60'612.6
2017-Mar-14 20:34N 14°20' W 017°60'1612.6
2017-Mar-14 19:19N 14°04' W 018°00'2112.2
2017-Mar-14 17:33N 13°43' W 017°60'1512.6
2017-Mar-14 16:23N 13°28' W 017°60'13712.6
2017-Mar-14 05:29N 11°11' W 018°00'3712.8
2017-Mar-14 02:34N 10°33' W 017°60'1211.9
2017-Mar-14 01:34N 10°23' W 017°54'2912.8
2017-Mar-13 23:19N 10°01' W 017°36'1412.6
2017-Mar-13 22:11N 09°49' W 017°27'1312.6
2017-Mar-13 21:08N 09°39' W 017°18'712.4
2017-Mar-13 20:34N 09°34' W 017°14'1312.9
2017-Mar-13 19:33N 09°24' W 017°05'1312.9
2017-Mar-13 18:34N 09°14' W 016°57'1312.8
2017-Mar-13 17:33N 09°04' W 016°49'1312.8
2017-Mar-13 16:33N 08°54' W 016°41'1312.8
2017-Mar-13 15:32N 08°43' W 016°33'1212.7
2017-Mar-13 14:34N 08°34' W 016°25'1312.7
2017-Mar-13 13:34N 08°24' W 016°17'  
Track history (hours):
 
Tides and Currents Weather Stations Pressure Air Temp Water Temp Dewpoint Dewpoint Depression Visibility Wind Speed Wind Dir Waves Ship Positions

Butterfly

Last reported at 2017-Mar-19 17:34 UTC. Time now 2017-Mar-25 02:04 UTC.
Position N 36°14' W 007°28'.

Length 182 m; draft 7.3 m.

Type: Ship. MMSI: 311985000.

Date/timePositionNaut miles runAvg speedWind from/ knotsBaromVisibWave heightAir tempDewpointWater temp
2017-Mar-19 17:34N 36°14' W 007°28'1313.4
2017-Mar-19 16:33N 36°03' W 007°37'1413.5
2017-Mar-19 15:33N 35°52' W 007°46'48612.8
2017-Mar-18 01:33N 29°02' W 012°55'1413.5
2017-Mar-18 00:33N 28°50' W 013°03'1413.5
2017-Mar-17 23:31N 28°38' W 013°12'1313.6
2017-Mar-17 22:32N 28°27' W 013°20'  
2017-Mar-15 00:33N 15°10' W 017°60'1412.6
2017-Mar-14 23:26N 14°56' W 018°00'3012.7
2017-Mar-14 21:04N 14°26' W 017°60'612.6
2017-Mar-14 20:34N 14°20' W 017°60'1612.6
2017-Mar-14 19:19N 14°04' W 018°00'2112.2
2017-Mar-14 17:33N 13°43' W 017°60'1512.6
2017-Mar-14 16:23N 13°28' W 017°60'13712.6
2017-Mar-14 05:29N 11°11' W 018°00'3712.8
2017-Mar-14 02:34N 10°33' W 017°60'1211.9
2017-Mar-14 01:34N 10°23' W 017°54'2912.8
2017-Mar-13 23:19N 10°01' W 017°36'1412.6
2017-Mar-13 22:11N 09°49' W 017°27'1312.6
2017-Mar-13 21:08N 09°39' W 017°18'712.4
2017-Mar-13 20:34N 09°34' W 017°14'1312.9
2017-Mar-13 19:33N 09°24' W 017°05'1312.9
2017-Mar-13 18:34N 09°14' W 016°57'1312.8
2017-Mar-13 17:33N 09°04' W 016°49'1312.8
2017-Mar-13 16:33N 08°54' W 016°41'1312.8
2017-Mar-13 15:32N 08°43' W 016°33'1212.7
2017-Mar-13 14:34N 08°34' W 016°25'1312.7
2017-Mar-13 13:34N 08°24' W 016°17'  

Dump ship's entire track history